PADK/ADK METAR and TAF weather

Enter ICAO airport designator
Station Type Date Time Source
PADK METAR 2020/11/27 14:56 UTC NOAA

PADK 271456Z AUTO 25017G26KT 10SM FEW036 BKN048 BKN060 02/M02 A2926 RMK AO2 PK WND 25033/1358 RAB1358E27 SLP908 P0000 60000 T00171022 51026 FZRANO


Station Type Date Time Source
PADK Decoded METAR 2020/11/27 14:56 UTC NOAA

Adak Island, Adak Airport, AK, United States (PADK) 51-52-40N 176-38-45W 4M
Nov 27, 2020 - 09:56 AM EST / 2020.11.27 1456 UTC
Wind: from the WSW (250 degrees) at 20 MPH (17 KT) gusting to 30 MPH (26 KT):0
Visibility: 10 mile(s):0
Sky conditions: mostly cloudy
Precipitation last hour: A trace
Temperature: 35.1 F (1.7 C)
Dew Point: 28.0 F (-2.2 C)
Relative Humidity: 75%
Pressure (altimeter): 29.26 in. Hg (990 hPa)
Pressure tendency: 0.08 inches (2.6 hPa) higher than three hours ago
ob: PADK 271456Z AUTO 25017G26KT 10SM FEW036 BKN048 BKN060 02/M02 A2926 RMK AO2 PK WND 25033/1358 RAB1358E27 SLP908 P0000 60000 T00171022 51026 FZRANO
cycle: 15

Station Type Date Time Source
PADK TAF 2007/04/07 12:54 UTC NOAA

TAF PADK 070404 33010G15KT 9999 FEW025 BKN030 OVC050 QNH2900INS T03/00Z TM01/18Z COR 1205 LAST NO
AMDS AFT 0712;

Example: see airport list